createdAt,value
2019-01-29T00:01:00.698Z,2.86
2019-01-29T00:06:09.141Z,3.02
2019-01-29T00:11:19.821Z,3.42
2019-01-29T00:16:18.192Z,4.01
2019-01-29T00:21:26.759Z,4.02
2019-01-29T00:26:35.568Z,3.28
2019-01-29T00:31:44.067Z,3.11
2019-01-29T00:36:51.426Z,3.55
2019-01-29T00:41:59.910Z,3.62
2019-01-29T00:47:08.743Z,3.81
2019-01-29T00:52:17.193Z,3.47
2019-01-29T00:57:25.926Z,4.38
2019-01-29T01:02:34.390Z,4.58
2019-01-29T01:07:44.296Z,4.04
2019-01-29T01:12:52.758Z,3.66
2019-01-29T01:18:01.538Z,3.57
2019-01-29T01:23:10.063Z,3.58
2019-01-29T01:28:18.793Z,3.30
2019-01-29T01:33:27.337Z,3.18
2019-01-29T01:38:36.166Z,3.04
2019-01-29T01:43:44.602Z,2.63
2019-01-29T01:48:53.333Z,2.55
2019-01-29T01:54:01.868Z,2.74
2019-01-29T01:59:11.729Z,2.60
2019-01-29T02:04:20.158Z,2.28
2019-01-29T02:09:29.061Z,2.54
2019-01-29T02:14:37.638Z,2.22
2019-01-29T02:19:46.737Z,2.18
2019-01-29T02:24:55.165Z,2.19
2019-01-29T02:30:03.980Z,2.31
2019-01-29T02:35:12.434Z,1.89
2019-01-29T02:40:21.475Z,2.18
2019-01-29T02:45:29.960Z,1.83
2019-01-29T02:50:38.732Z,1.84
2019-01-29T02:55:47.597Z,2.18
2019-01-29T03:00:56.487Z,2.11
2019-01-29T03:06:05.048Z,2.23
2019-01-29T03:11:13.983Z,2.20
2019-01-29T03:16:22.398Z,2.43
2019-01-29T03:21:31.639Z,2.42
2019-01-29T03:26:39.436Z,2.16
2019-01-29T03:31:48.323Z,2.27
2019-01-29T03:36:56.692Z,2.28
2019-01-29T03:42:05.549Z,2.39
2019-01-29T03:47:13.977Z,2.35
2019-01-29T03:52:22.827Z,3.19
2019-01-29T03:57:31.273Z,2.25
2019-01-29T04:02:40.110Z,2.15
2019-01-29T04:07:48.557Z,2.05
2019-01-29T04:12:58.671Z,2.30
2019-01-29T04:17:57.100Z,2.01
2019-01-29T04:23:05.982Z,2.07
2019-01-29T04:28:14.743Z,2.07
2019-01-29T04:33:23.121Z,2.04
2019-01-29T04:38:32.028Z,2.19
2019-01-29T04:43:40.346Z,2.60
2019-01-29T04:48:49.235Z,2.44
2019-01-29T04:53:58.001Z,2.36
2019-01-29T04:59:06.768Z,2.19
2019-01-29T05:04:15.276Z,2.35
2019-01-29T05:09:24.595Z,2.33
2019-01-29T05:14:33.158Z,2.49
2019-01-29T05:19:41.817Z,3.81
2019-01-29T05:24:50.420Z,3.57
2019-01-29T05:29:59.494Z,2.66
2019-01-29T05:35:08.402Z,2.69
2019-01-29T05:40:18.110Z,3.20
2019-01-29T05:45:26.524Z,2.55
2019-01-29T05:50:35.462Z,2.36
2019-01-29T05:55:44.079Z,2.99
2019-01-29T06:00:52.971Z,2.90
2019-01-29T06:06:01.465Z,2.89
2019-01-29T06:11:13.115Z,2.86
2019-01-29T06:16:15.703Z,2.78
2019-01-29T06:21:14.296Z,3.13
2019-01-29T06:26:27.218Z,3.27
2019-01-29T06:31:25.649Z,2.82
2019-01-29T06:36:40.013Z,2.72
2019-01-29T06:41:40.148Z,2.82
2019-01-29T06:46:38.738Z,3.17
2019-01-29T06:51:47.839Z,3.03
2019-01-29T06:56:55.006Z,3.16
2019-01-29T07:02:03.812Z,3.31
2019-01-29T07:07:12.319Z,3.82
2019-01-29T07:12:20.966Z,3.62
2019-01-29T07:22:36.445Z,3.70
2019-01-29T07:27:44.880Z,4.08
2019-01-29T07:32:53.277Z,4.26
2019-01-29T07:38:01.776Z,4.13
2019-01-29T07:43:10.445Z,3.91
2019-01-29T07:48:18.876Z,3.71
2019-01-29T07:53:27.641Z,3.42
2019-01-29T07:58:36.065Z,2.96
2019-01-29T08:03:44.709Z,3.31
2019-01-29T08:08:53.163Z,3.00
2019-01-29T08:14:01.899Z,3.18
2019-01-29T08:19:10.232Z,3.51
2019-01-29T08:24:17.536Z,2.90
2019-01-29T08:29:26.084Z,3.16
2019-01-29T08:34:34.804Z,3.26
2019-01-29T08:39:43.190Z,3.22
2019-01-29T08:44:51.919Z,3.74
2019-01-29T08:50:00.331Z,3.14
2019-01-29T08:55:10.715Z,3.45
2019-01-29T09:00:17.413Z,3.23
2019-01-29T09:05:26.038Z,3.49
2019-01-29T09:10:34.590Z,2.79
2019-01-29T09:15:43.335Z,2.85
2019-01-29T09:20:51.905Z,3.08
2019-01-29T09:26:00.843Z,3.07
2019-01-29T09:31:09.241Z,3.26
2019-01-29T09:36:18.041Z,3.02
2019-01-29T09:41:26.529Z,3.14
2019-01-29T09:46:35.328Z,2.97
2019-01-29T09:51:43.660Z,3.13
2019-01-29T09:56:52.190Z,3.29
2019-01-29T10:02:01.071Z,3.39
2019-01-29T10:07:09.458Z,3.16
2019-01-29T10:12:17.986Z,3.22
2019-01-29T10:17:26.346Z,3.48
2019-01-29T10:22:35.194Z,3.42
2019-01-29T10:27:43.568Z,3.85
2019-01-29T10:32:52.496Z,4.14
2019-01-29T10:38:00.844Z,4.18
2019-01-29T10:43:09.688Z,4.11
2019-01-29T10:48:20.489Z,4.21
2019-01-29T10:53:19.190Z,4.74
2019-01-29T10:58:27.766Z,4.43
2019-01-29T11:03:36.532Z,4.66
2019-01-29T11:08:45.055Z,4.79
2019-01-29T11:13:54.088Z,4.66
2019-01-29T11:19:03.437Z,4.96
2019-01-29T11:29:17.297Z,5.72
2019-01-29T11:34:25.986Z,4.63
2019-01-29T11:39:34.842Z,5.19
2019-01-29T11:44:43.420Z,5.00
2019-01-29T11:49:52.137Z,5.08
2019-01-29T11:55:00.558Z,4.95
2019-01-29T12:00:09.031Z,4.62
2019-01-29T12:05:17.510Z,5.29
2019-01-29T12:10:26.365Z,5.15
2019-01-29T12:15:34.872Z,5.00
2019-01-29T12:20:43.717Z,5.23
2019-01-29T12:25:54.743Z,5.42
2019-01-29T12:30:59.272Z,5.67
2019-01-29T12:35:57.886Z,5.47
2019-01-29T12:41:06.655Z,5.66
2019-01-29T12:46:15.058Z,5.13
2019-01-29T12:51:24.146Z,4.91
2019-01-29T12:56:33.191Z,4.91
2019-01-29T13:01:48.693Z,4.29
2019-01-29T13:06:47.122Z,4.67
2019-01-29T13:11:55.647Z,4.82
2019-01-29T13:17:02.854Z,4.95
2019-01-29T13:22:11.829Z,4.75
2019-01-29T13:27:31.890Z,5.18
2019-01-29T13:32:20.401Z,5.29
2019-01-29T13:37:28.975Z,5.11
2019-01-29T13:42:38.489Z,4.87
2019-01-29T13:47:47.073Z,5.18
2019-01-29T13:52:56.502Z,5.20
2019-01-29T13:58:04.971Z,5.07
2019-01-29T14:03:16.065Z,5.22
2019-01-29T14:08:14.567Z,4.86
2019-01-29T14:13:22.965Z,5.50
2019-01-29T14:18:33.496Z,5.25
2019-01-29T14:23:31.825Z,5.13
2019-01-29T14:28:40.520Z,5.05
2019-01-29T14:33:48.950Z,5.24
2019-01-29T14:38:57.429Z,5.28
2019-01-29T14:44:05.917Z,5.45
2019-01-29T14:49:14.349Z,5.63
2019-01-29T14:54:22.896Z,6.52
2019-01-29T14:59:31.830Z,6.82
2019-01-29T15:04:40.551Z,7.38
2019-01-29T15:09:48.977Z,7.00
2019-01-29T15:14:57.626Z,7.51
2019-01-29T15:20:06.143Z,7.88
2019-01-29T15:25:14.882Z,7.68
2019-01-29T15:30:24.071Z,6.97
2019-01-29T15:35:32.740Z,6.76
2019-01-29T15:40:41.187Z,7.16
2019-01-29T15:45:49.877Z,7.31
2019-01-29T15:50:58.470Z,5.77
2019-01-29T15:56:07.413Z,6.04
2019-01-29T16:01:15.941Z,5.82
2019-01-29T16:06:26.829Z,6.96
2019-01-29T16:11:25.392Z,6.22
2019-01-29T16:16:33.907Z,6.52
2019-01-29T16:21:42.712Z,6.04
2019-01-29T16:26:51.445Z,6.46
2019-01-29T16:32:00.174Z,6.04
2019-01-29T16:37:08.662Z,5.72
2019-01-29T16:42:18.854Z,5.49
2019-01-29T16:47:17.188Z,6.03
2019-01-29T16:52:25.690Z,5.72
2019-01-29T16:57:34.996Z,5.55
2019-01-29T17:02:43.496Z,5.15
2019-01-29T17:07:52.140Z,6.27
2019-01-29T17:13:00.994Z,6.15
2019-01-29T17:18:09.770Z,6.07
2019-01-29T17:23:18.331Z,5.85
2019-01-29T17:28:26.938Z,6.62
2019-01-29T17:33:35.478Z,5.71
2019-01-29T17:38:46.910Z,5.10
2019-01-29T17:43:45.438Z,5.10
2019-01-29T17:48:54.371Z,5.46
2019-01-29T17:54:02.894Z,5.79
2019-01-29T17:59:11.325Z,5.77
2019-01-29T18:04:20.032Z,5.75
2019-01-29T18:09:28.590Z,6.36
2019-01-29T18:14:37.338Z,5.91
2019-01-29T18:19:45.731Z,5.78
2019-01-29T18:24:54.428Z,5.76
2019-01-29T18:30:02.881Z,5.96
2019-01-29T18:35:11.426Z,5.85
2019-01-29T18:40:19.725Z,5.48
2019-01-29T18:45:28.619Z,5.28
2019-01-29T18:50:37.145Z,5.96
2019-01-29T18:55:45.908Z,5.43
2019-01-29T19:00:55.004Z,5.26
2019-01-29T19:06:03.201Z,5.49
2019-01-29T19:11:11.625Z,6.05
2019-01-29T19:16:20.450Z,6.17
2019-01-29T19:21:28.844Z,6.66
2019-01-29T19:26:37.864Z,6.58
2019-01-29T19:31:46.525Z,7.50
2019-01-29T19:36:55.466Z,8.34
2019-01-29T19:42:03.936Z,7.07
2019-01-29T19:47:12.696Z,6.73
2019-01-29T19:52:21.061Z,7.17
2019-01-29T19:57:29.845Z,7.82
2019-01-29T20:02:38.308Z,8.02
2019-01-29T20:07:47.088Z,7.58
2019-01-29T20:12:55.473Z,6.93
2019-01-29T20:18:06.877Z,7.04
2019-01-29T20:23:08.034Z,6.98
2019-01-29T20:28:13.588Z,7.01
2019-01-29T20:33:21.983Z,6.56
2019-01-29T20:38:35.184Z,6.37
2019-01-29T20:43:38.678Z,6.73
2019-01-29T20:48:47.314Z,7.05
2019-01-29T20:53:55.800Z,7.63
2019-01-29T20:59:04.611Z,7.25
2019-01-29T21:04:13.062Z,7.62
2019-01-29T21:09:22.408Z,7.59
2019-01-29T21:14:30.966Z,7.87
2019-01-29T21:19:39.824Z,7.42
2019-01-29T21:24:48.237Z,7.97
2019-01-29T21:29:57.357Z,7.49
2019-01-29T21:35:05.873Z,7.72
2019-01-29T21:40:14.731Z,7.87
2019-01-29T21:45:23.167Z,7.39
2019-01-29T21:50:31.879Z,7.39
2019-01-29T21:55:40.237Z,7.23
2019-01-29T22:00:48.817Z,7.47
2019-01-29T22:05:57.153Z,7.35
2019-01-29T22:11:05.845Z,7.55
2019-01-29T22:16:14.210Z,7.40
2019-01-29T22:21:22.998Z,7.01
2019-01-29T22:26:30.224Z,7.36
2019-01-29T22:31:39.085Z,7.37
2019-01-29T22:36:47.681Z,7.11
2019-01-29T22:41:57.642Z,8.73
2019-01-29T22:47:06.216Z,7.32
2019-01-29T22:52:14.916Z,7.43
2019-01-29T22:57:23.423Z,7.46
2019-01-29T23:02:32.171Z,7.16
2019-01-29T23:07:40.900Z,6.70
2019-01-29T23:12:49.665Z,6.92
2019-01-29T23:17:58.007Z,7.00
2019-01-29T23:23:06.980Z,6.61
2019-01-29T23:28:15.320Z,6.93
2019-01-29T23:33:24.091Z,7.04
2019-01-29T23:38:32.728Z,6.84
2019-01-29T23:43:41.425Z,6.71
2019-01-29T23:48:49.879Z,6.79
2019-01-29T23:53:58.549Z,6.80
2019-01-29T23:59:06.974Z,6.25
